Time;durP1;ratioP1;P1;durP2;ratioP2;P2;SDS_P1;SDS_P2;PMS_P1;PMS_P2;Temp;Humidity;BMP_temperature;BMP_pressure;BME280_temperature;BME280_humidity;BME280_pressure;Samples;Min_cycle;Max_cycle;Signal;HPM_P1;HPM_P2
2023/05/08 00:01:31;;;;;;;8.43;3.88;;;;;;;13.26;63.02;94094.06;5122962;28;20035;-80
2023/05/08 00:03:56;;;;;;;6.65;4.07;;;;;;;13.22;62.99;94098.50;5123218;28;20222;-80
2023/05/08 00:06:22;;;;;;;13.20;4.57;;;;;;;13.22;62.96;94085.13;5123422;28;20023;-80
2023/05/08 00:08:47;;;;;;;8.77;4.18;;;;;;;13.24;62.91;94098.97;5126969;28;20431;-80
2023/05/08 00:11:13;;;;;;;10.80;4.72;;;;;;;13.22;63.04;94101.19;5127197;28;20240;-80
2023/05/08 00:13:40;;;;;;;9.68;5.15;;;;;;;13.21;63.13;94097.75;5127040;28;20020;-80
2023/05/08 00:16:08;;;;;;;10.55;4.28;;;;;;;13.14;63.07;94097.44;5126887;28;20019;-80
2023/05/08 00:18:34;;;;;;;11.88;4.75;;;;;;;13.10;63.38;94093.84;5126856;28;20023;-80
2023/05/08 00:21:00;;;;;;;16.38;4.95;;;;;;;13.10;63.36;94098.41;5126765;28;20020;-80
2023/05/08 00:23:25;;;;;;;7.53;4.20;;;;;;;13.09;63.59;94107.53;5126920;28;20326;-80
2023/05/08 00:25:51;;;;;;;6.40;4.35;;;;;;;13.09;63.54;94104.88;5126641;28;20253;-80
2023/05/08 00:28:16;;;;;;;8.10;4.50;;;;;;;13.09;63.47;94115.56;5126695;28;20240;-80
2023/05/08 00:30:42;;;;;;;9.25;4.75;;;;;;;13.08;63.60;94114.00;5126546;28;20318;-80
2023/05/08 00:33:08;;;;;;;7.82;5.03;;;;;;;13.04;63.64;94109.28;5126564;28;20225;-80
2023/05/08 00:35:33;;;;;;;10.95;4.65;;;;;;;13.01;63.88;94106.50;5126285;28;20026;-80
2023/05/08 00:38:00;;;;;;;12.65;4.95;;;;;;;12.97;63.85;94114.38;5126518;28;20023;-80
2023/05/08 00:40:25;;;;;;;7.22;4.20;;;;;;;12.94;64.03;94098.94;5126515;28;20020;-80
2023/05/08 00:42:51;;;;;;;10.38;4.75;;;;;;;12.91;64.15;94110.31;5126136;28;20019;-80
2023/05/08 00:45:17;;;;;;;10.88;5.57;;;;;;;12.89;64.34;94101.03;5126374;28;20057;-80
2023/05/08 00:47:42;;;;;;;11.48;5.18;;;;;;;12.79;64.71;94108.31;5126141;28;20027;-80
2023/05/08 00:50:09;;;;;;;15.88;5.93;;;;;;;12.72;65.04;94102.69;5107966;28;20042;-80
2023/05/08 00:52:34;;;;;;;11.77;5.60;;;;;;;12.69;65.22;94105.97;5126349;28;20023;-80
2023/05/08 00:55:02;;;;;;;7.88;4.65;;;;;;;12.66;65.18;94103.97;5108072;28;20062;-79
2023/05/08 00:57:31;;;;;;;8.07;4.95;;;;;;;12.62;65.29;94111.06;5126206;28;20016;-80
2023/05/08 00:59:58;;;;;;;8.15;5.10;;;;;;;12.62;65.33;94111.06;5126169;28;20266;-80
2023/05/08 01:02:24;;;;;;;13.77;4.30;;;;;;;12.62;65.08;94111.81;5126282;28;20099;-80
2023/05/08 01:04:52;;;;;;;7.72;4.25;;;;;;;12.63;65.23;94118.72;5126066;28;20030;-80
2023/05/08 01:07:18;;;;;;;11.00;4.68;;;;;;;12.61;65.25;94123.63;5125761;28;20119;-80
2023/05/08 01:09:44;;;;;;;6.88;4.95;;;;;;;12.61;65.10;94115.59;5125839;28;20323;-80
2023/05/08 01:12:23;;;;;;;16.55;4.43;;;;;;;12.55;65.33;94116.88;5125864;28;20038;-80
2023/05/08 01:14:57;;;;;;;8.60;4.00;;;;;;;12.57;65.38;94117.34;5125781;28;20202;-80
2023/05/08 01:17:35;;;;;;;6.85;4.68;;;;;;;12.54;65.35;94126.00;5125387;28;20318;-80
2023/05/08 01:20:35;;;;;;;6.35;4.18;;;;;;;12.55;65.45;94124.88;5124934;28;20317;-80
2023/05/08 01:23:28;;;;;;;6.68;4.13;;;;;;;12.51;65.54;94123.94;5125604;28;20024;-80
2023/05/08 01:26:07;;;;;;;6.60;4.20;;;;;;;12.49;65.61;94120.81;5107572;28;20214;-80
2023/05/08 01:28:35;;;;;;;7.50;4.70;;;;;;;12.50;65.66;94121.63;5125609;28;20026;-81
2023/05/08 01:31:00;;;;;;;6.40;4.43;;;;;;;12.49;65.59;94115.47;5125262;28;20384;-80
2023/05/08 01:33:36;;;;;;;11.07;4.78;;;;;;;12.48;65.44;94123.81;5125540;28;20032;-80
2023/05/08 01:36:16;;;;;;;7.03;4.28;;;;;;;12.45;65.62;94109.97;5125408;28;20310;-80
2023/05/08 01:38:54;;;;;;;9.48;5.07;;;;;;;12.46;65.62;94116.13;5125347;28;20016;-79
2023/05/08 01:41:28;;;;;;;8.80;4.40;;;;;;;12.44;65.58;94111.09;5125161;28;20030;-80
2023/05/08 01:44:00;;;;;;;14.30;4.75;;;;;;;12.42;65.60;94112.50;5125443;28;20259;-80
2023/05/08 01:46:27;;;;;;;8.52;4.43;;;;;;;12.41;65.63;94114.38;5125403;28;20051;-80
2023/05/08 01:49:02;;;;;;;9.25;4.80;;;;;;;12.37;65.72;94104.66;5124889;28;20348;-80
2023/05/08 01:51:36;;;;;;;7.25;3.95;;;;;;;12.35;65.68;94101.50;5106960;28;20023;-80
2023/05/08 01:54:06;;;;;;;8.90;4.53;;;;;;;12.34;65.71;94102.63;5125013;28;20015;-80
2023/05/08 01:56:33;;;;;;;10.25;4.28;;;;;;;12.20;66.06;94100.91;5124932;28;20031;-80
2023/05/08 01:59:01;;;;;;;7.32;4.45;;;;;;;12.21;66.12;94107.03;5124990;28;20012;-80
2023/05/08 02:01:29;;;;;;;8.95;4.55;;;;;;;12.24;66.00;94103.72;5124872;28;20094;-80
2023/05/08 02:03:55;;;;;;;12.02;5.20;;;;;;;12.27;65.90;94103.09;5106978;28;20045;-80
2023/05/08 02:06:21;;;;;;;12.63;4.28;;;;;;;12.29;65.69;94100.09;5124603;28;20026;-80
2023/05/08 02:08:48;;;;;;;5.68;3.85;;;;;;;12.28;65.53;94103.91;5124828;28;20317;-80
2023/05/08 02:11:16;;;;;;;9.40;4.25;;;;;;;12.28;65.57;94106.56;5124673;28;20016;-80
2023/05/08 02:13:45;;;;;;;7.68;4.40;;;;;;;12.28;65.49;94109.25;5124823;28;20322;-80
2023/05/08 02:16:12;;;;;;;8.07;4.60;;;;;;;12.28;65.75;94110.00;5124760;28;20043;-80
2023/05/08 02:18:41;;;;;;;10.90;3.95;;;;;;;12.22;65.68;94101.38;5124572;28;20030;-80
2023/05/08 02:21:09;;;;;;;8.73;4.40;;;;;;;12.14;65.97;94098.72;5124612;28;20023;-80
2023/05/08 02:23:35;;;;;;;9.45;4.53;;;;;;;12.11;66.23;94110.84;5124494;28;20030;-80
2023/05/08 02:26:03;;;;;;;6.93;4.07;;;;;;;12.09;66.15;94110.38;5124521;28;20035;-80
2023/05/08 02:28:29;;;;;;;8.82;4.57;;;;;;;12.09;66.33;94113.03;5124290;28;20225;-80
2023/05/08 02:30:57;;;;;;;8.57;5.20;;;;;;;12.08;66.34;94103.44;5124244;28;20023;-80
2023/05/08 02:33:25;;;;;;;6.10;3.85;;;;;;;12.08;66.42;94108.78;5124382;28;20031;-80
2023/05/08 02:35:51;;;;;;;5.70;4.10;;;;;;;12.08;66.35;94111.44;5124462;28;20095;-80
2023/05/08 02:38:20;;;;;;;8.43;3.95;;;;;;;12.05;66.29;94104.09;5124583;28;20024;-80
2023/05/08 02:40:51;;;;;;;9.15;4.38;;;;;;;12.07;66.32;94109.88;5124661;28;20086;-80
2023/05/08 02:43:17;;;;;;;5.73;3.77;;;;;;;12.09;66.32;94107.69;5124646;28;20020;-80
2023/05/08 02:45:48;;;;;;;10.57;4.05;;;;;;;12.01;66.56;94116.50;5124475;28;20272;-80
2023/05/08 02:48:32;;;;;;;9.15;4.05;;;;;;;12.02;66.70;94102.81;5124234;28;20032;-80
2023/05/08 02:51:22;;;;;;;8.63;4.38;;;;;;;12.01;66.82;94113.81;5124543;28;20309;-80
2023/05/08 02:53:54;;;;;;;10.20;3.70;;;;;;;12.03;66.83;94116.97;5123849;28;20094;-80
2023/05/08 02:56:49;;;;;;;8.32;4.22;;;;;;;12.03;66.77;94120.41;5124022;28;20019;-80
2023/05/08 02:59:36;;;;;;;8.20;4.00;;;;;;;12.02;66.81;94118.06;5123960;28;20024;-80
2023/05/08 03:02:34;;;;;;;14.40;4.20;;;;;;;12.02;66.86;94123.41;5123681;28;20051;-80
2023/05/08 03:05:05;;;;;;;8.43;4.43;;;;;;;12.02;66.71;94118.84;5123769;28;20264;-79
2023/05/08 03:07:37;;;;;;;15.73;5.00;;;;;;;12.07;66.70;94123.25;5123694;28;20099;-80
2023/05/08 03:10:11;;;;;;;12.50;4.93;;;;;;;12.12;66.51;94119.63;5123652;28;20027;-80
2023/05/08 03:12:41;;;;;;;13.55;5.03;;;;;;;12.13;66.65;94113.16;5123546;28;20091;-80
2023/05/08 03:15:13;;;;;;;10.98;5.38;;;;;;;12.16;66.78;94128.56;5123642;28;20035;-80
2023/05/08 03:17:42;;;;;;;10.55;4.78;;;;;;;12.15;66.54;94127.81;5123503;28;20015;-80
2023/05/08 03:20:13;;;;;;;11.55;5.57;;;;;;;12.13;66.44;94124.66;5123639;28;20095;-80
2023/05/08 03:22:41;;;;;;;8.97;4.07;;;;;;;12.09;66.72;94123.72;5123357;28;20123;-80
2023/05/08 03:25:09;;;;;;;7.35;4.50;;;;;;;12.06;66.92;94124.34;5123508;28;20034;-80
2023/05/08 03:27:36;;;;;;;6.63;4.25;;;;;;;12.00;66.77;94121.03;5123892;28;20110;-80
2023/05/08 03:30:03;;;;;;;9.73;4.30;;;;;;;12.01;67.00;94127.19;5123887;28;20019;-80
2023/05/08 03:32:32;;;;;;;10.90;3.85;;;;;;;12.00;66.72;94126.38;5123774;28;20027;-80
2023/05/08 03:34:58;;;;;;;8.93;4.47;;;;;;;12.00;66.80;94130.94;5123255;28;20020;-80
2023/05/08 03:37:27;;;;;;;7.15;4.05;;;;;;;12.00;66.66;94126.38;5105418;28;20268;-80
2023/05/08 03:39:53;;;;;;;7.55;4.05;;;;;;;12.07;66.65;94131.25;5123199;28;20072;-80
2023/05/08 03:42:21;;;;;;;10.07;4.53;;;;;;;12.10;66.65;94122.59;5125335;28;20034;-80
2023/05/08 03:44:51;;;;;;;7.50;3.78;;;;;;;12.12;66.34;94124.97;5127562;28;20019;-80
2023/05/08 03:47:20;;;;;;;8.77;3.97;;;;;;;12.14;66.52;94120.88;5127479;28;20027;-80
2023/05/08 03:49:47;;;;;;;8.38;4.15;;;;;;;12.22;66.22;94124.66;5109259;28;20103;-80
2023/05/08 03:52:14;;;;;;;7.65;4.30;;;;;;;12.26;66.39;94133.59;5127779;28;20031;-80
2023/05/08 03:54:40;;;;;;;7.22;4.28;;;;;;;12.28;65.89;94134.06;5127265;28;20263;-80
2023/05/08 03:57:05;;;;;;;10.23;4.25;;;;;;;12.30;65.35;94133.75;5127683;28;20071;-80
2023/05/08 03:59:42;;;;;;;12.30;4.57;;;;;;;12.31;65.38;94136.09;5127385;28;20024;-80
2023/05/08 04:02:25;;;;;;;5.38;3.90;;;;;;;12.32;65.31;94136.91;5127169;28;20038;-80
2023/05/08 04:05:00;;;;;;;11.38;4.60;;;;;;;12.40;65.54;94138.78;5126995;28;20020;-80
2023/05/08 04:07:37;;;;;;;6.95;4.72;;;;;;;12.43;65.28;94146.16;5127119;28;20030;-80
2023/05/08 04:10:08;;;;;;;8.13;4.30;;;;;;;12.44;64.76;94142.38;5126932;28;20027;-80
2023/05/08 04:12:53;;;;;;;7.65;4.15;;;;;;;12.47;64.66;94152.44;5126914;28;20081;-80
2023/05/08 04:15:23;;;;;;;15.30;4.88;;;;;;;12.48;64.69;94148.66;5126918;28;20027;-80
2023/05/08 04:17:52;;;;;;;7.55;4.65;;;;;;;12.55;64.67;94151.63;5126968;28;20023;-80
2023/05/08 04:20:20;;;;;;;12.05;4.68;;;;;;;12.60;64.69;94156.03;5126472;28;20034;-80
2023/05/08 04:22:48;;;;;;;8.13;4.50;;;;;;;12.60;64.72;94154.16;5126736;28;20026;-80
2023/05/08 04:25:16;;;;;;;12.38;4.97;;;;;;;12.64;64.87;94160.44;5126762;28;20020;-80
2023/05/08 04:27:43;;;;;;;18.25;5.25;;;;;;;12.75;65.37;94154.75;5126774;28;20252;-80
2023/05/08 04:30:09;;;;;;;6.55;4.53;;;;;;;12.78;64.54;94168.25;5126812;28;20034;-80
2023/05/08 04:32:37;;;;;;;13.75;5.28;;;;;;;12.76;63.79;94167.00;5126678;28;20023;-80
2023/05/08 04:35:03;;;;;;;16.58;4.97;;;;;;;12.78;63.51;94154.09;5126763;28;20056;-80
2023/05/08 04:37:32;;;;;;;13.07;5.30;;;;;;;12.79;63.54;94161.03;5126453;28;20061;-80
2023/05/08 04:39:58;;;;;;;11.68;4.90;;;;;;;12.85;64.31;94159.75;5126763;28;20065;-80
2023/05/08 04:42:27;;;;;;;8.77;5.10;;;;;;;12.93;63.53;94150.91;5126751;28;20299;-80
2023/05/08 04:44:53;;;;;;;10.43;5.45;;;;;;;12.94;63.08;94149.78;5126579;28;20020;-80
2023/05/08 04:47:19;;;;;;;9.80;4.78;;;;;;;13.00;63.27;94148.50;5126400;28;20111;-80
2023/05/08 04:49:45;;;;;;;13.75;5.25;;;;;;;13.07;63.01;94144.53;5126158;28;20053;-80
2023/05/08 04:52:10;;;;;;;12.05;6.28;;;;;;;13.12;63.44;94141.69;5126214;28;20229;-80
2023/05/08 04:54:36;;;;;;;8.77;5.20;;;;;;;13.12;62.94;94136.34;5126538;28;20190;-80
2023/05/08 04:57:02;;;;;;;8.75;5.13;;;;;;;13.17;63.08;94142.31;5126687;28;20366;-80
2023/05/08 04:59:28;;;;;;;16.90;5.30;;;;;;;13.19;63.07;94126.72;5126533;28;20023;-80
2023/05/08 05:01:55;;;;;;;13.20;5.43;;;;;;;13.21;63.36;94134.44;5126476;28;20036;-80
2023/05/08 05:04:21;;;;;;;14.45;5.45;;;;;;;13.27;63.16;94125.09;5126305;28;20020;-80
2023/05/08 05:06:46;;;;;;;11.55;5.57;;;;;;;13.23;63.60;94137.56;5126414;28;20020;-80
2023/05/08 05:09:12;;;;;;;11.70;6.53;;;;;;;13.26;63.77;94136.91;5125873;28;20198;-80
2023/05/08 05:11:37;;;;;;;8.27;5.25;;;;;;;13.29;63.53;94125.59;5126237;28;20075;-80
2023/05/08 05:14:03;;;;;;;11.98;5.70;;;;;;;13.30;63.39;94123.69;5125224;28;20046;-80
2023/05/08 05:16:28;;;;;;;26.42;5.40;;;;;;;13.33;63.29;94134.56;5126307;28;20098;-80
2023/05/08 05:18:54;;;;;;;12.63;5.47;;;;;;;13.37;63.15;94124.78;5126323;28;20023;-80
2023/05/08 05:21:19;;;;;;;10.25;5.35;;;;;;;13.46;62.69;94126.59;5126139;28;20024;-80
2023/05/08 05:23:45;;;;;;;15.57;6.18;;;;;;;13.56;62.56;94116.28;5125872;28;20043;-80
2023/05/08 05:26:10;;;;;;;9.70;6.50;;;;;;;13.66;62.07;94120.50;5126115;28;20091;-80
2023/05/08 05:28:36;;;;;;;10.32;5.40;;;;;;;13.67;62.07;94127.41;5125853;28;20091;-80
2023/05/08 05:31:02;;;;;;;13.45;5.22;;;;;;;13.72;62.12;94127.22;5126062;28;20087;-80
2023/05/08 05:33:27;;;;;;;11.05;5.38;;;;;;;13.68;62.21;94126.31;5126048;28;20206;-80
2023/05/08 05:35:52;;;;;;;13.27;5.85;;;;;;;13.70;61.96;94121.41;5125797;28;20027;-80
2023/05/08 05:38:18;;;;;;;11.45;5.95;;;;;;;13.73;61.77;94134.13;5125713;28;20050;-80
2023/05/08 05:40:43;;;;;;;14.45;4.97;;;;;;;13.73;62.17;94126.09;5125813;28;20030;-80
2023/05/08 05:43:09;;;;;;;20.95;5.55;;;;;;;13.73;62.80;94130.69;5125701;28;20047;-80
2023/05/08 05:45:35;;;;;;;12.82;5.22;;;;;;;13.83;62.39;94128.38;5125468;28;20087;-80
2023/05/08 05:48:01;;;;;;;15.13;4.95;;;;;;;13.90;61.82;94127.09;5125735;28;20032;-80
2023/05/08 05:50:27;;;;;;;14.15;4.68;;;;;;;13.98;61.37;94131.59;5125731;28;20060;-80
2023/05/08 05:52:53;;;;;;;15.60;6.30;;;;;;;14.03;61.55;94124.16;5125273;28;20024;-79
2023/05/08 05:55:18;;;;;;;16.38;5.10;;;;;;;14.13;61.10;94128.31;5125065;28;20027;-80
2023/05/08 05:57:44;;;;;;;20.98;5.10;;;;;;;14.23;60.70;94125.25;5125024;28;20026;-81
2023/05/08 06:00:11;;;;;;;11.50;5.28;;;;;;;14.34;60.55;94125.59;5125329;28;20035;-80
2023/05/08 06:02:36;;;;;;;7.25;4.78;;;;;;;14.51;60.27;94124.69;5125133;28;20035;-80
2023/05/08 06:05:02;;;;;;;8.98;4.35;;;;;;;14.66;58.59;94119.81;5124396;28;20061;-80
2023/05/08 06:07:28;;;;;;;9.35;4.63;;;;;;;14.84;57.83;94115.84;5125059;28;20024;-81
2023/05/08 06:09:53;;;;;;;9.63;5.20;;;;;;;15.00;57.71;94107.88;5124904;28;20366;-81
2023/05/08 06:12:19;;;;;;;9.93;4.32;;;;;;;15.15;57.47;94107.25;5124874;28;20323;-81
2023/05/08 06:14:44;;;;;;;15.50;5.30;;;;;;;15.29;56.51;94114.19;5125180;28;20099;-81
2023/05/08 06:17:10;;;;;;;15.27;4.53;;;;;;;15.34;56.00;94114.72;5125021;28;20245;-81
2023/05/08 06:19:36;;;;;;;10.90;5.20;;;;;;;15.36;56.50;94104.44;5124866;28;20023;-80
2023/05/08 06:22:02;;;;;;;6.88;4.20;;;;;;;15.47;56.09;94109.34;5124699;28;20027;-81
2023/05/08 06:24:27;;;;;;;17.33;4.47;;;;;;;15.55;54.71;94106.56;5123642;28;20363;-81
2023/05/08 06:26:53;;;;;;;7.57;4.03;;;;;;;15.65;54.90;94107.97;5124926;28;20090;-81
2023/05/08 06:29:19;;;;;;;11.85;4.10;;;;;;;15.76;54.45;94113.72;5125336;28;20058;-81
2023/05/08 06:31:44;;;;;;;11.10;5.78;;;;;;;15.89;54.00;94109.84;5124465;28;20026;-81
2023/05/08 06:34:10;;;;;;;10.00;4.20;;;;;;;15.95;54.17;94108.50;5124504;28;20015;-81
2023/05/08 06:36:35;;;;;;;8.40;5.13;;;;;;;16.06;54.56;94116.88;5124274;28;20054;-81
2023/05/08 06:39:04;;;;;;;6.05;3.67;;;;;;;16.16;54.70;94116.41;5124329;28;20272;-81
2023/05/08 06:41:30;;;;;;;11.23;5.88;;;;;;;16.30;52.86;94112.53;5124315;28;20026;-81
2023/05/08 06:43:55;;;;;;;6.90;3.75;;;;;;;16.31;53.13;94114.88;5124726;28;20090;-80
2023/05/08 06:46:21;;;;;;;12.77;4.88;;;;;;;16.34;52.42;94118.78;5124498;28;20034;-81
2023/05/08 06:48:46;;;;;;;10.45;4.55;;;;;;;16.30;52.59;94117.91;5106300;28;20222;-81
2023/05/08 06:51:11;;;;;;;14.02;5.65;;;;;;;16.31;52.49;94119.50;5124466;28;20024;-81
2023/05/08 06:53:37;;;;;;;16.30;4.38;;;;;;;16.37;53.03;94113.50;5124750;28;20079;-80
2023/05/08 06:56:03;;;;;;;15.13;7.40;;;;;;;16.54;52.12;94117.78;5124546;28;20030;-81
2023/05/08 06:58:30;;;;;;;13.57;4.50;;;;;;;16.61;51.32;94120.69;5124450;28;20039;-82
2023/05/08 07:00:58;;;;;;;13.38;3.80;;;;;;;16.68;51.50;94117.38;5124363;28;20019;-81
2023/05/08 07:03:23;;;;;;;6.55;3.97;;;;;;;16.59;51.53;94120.25;5123965;28;20058;-81
2023/05/08 07:05:49;;;;;;;28.33;6.25;;;;;;;16.56;52.30;94129.00;5123955;28;20039;-81
2023/05/08 07:08:14;;;;;;;7.07;4.00;;;;;;;16.52;52.75;94127.34;5124727;28;20035;-80
2023/05/08 07:10:39;;;;;;;19.02;4.35;;;;;;;16.60;52.77;94121.78;5106396;28;20213;-81
2023/05/08 07:13:05;;;;;;;15.23;4.43;;;;;;;16.71;52.32;94132.06;5123948;28;20051;-81
2023/05/08 07:15:31;;;;;;;9.65;3.80;;;;;;;16.79;51.85;94131.13;5124001;28;20027;-81
2023/05/08 07:17:56;;;;;;;11.95;4.55;;;;;;;16.83;51.63;94132.81;5124045;28;20015;-81
2023/05/08 07:20:23;;;;;;;13.00;4.65;;;;;;;16.84;51.30;94130.91;5124049;28;20220;-81
2023/05/08 07:22:48;;;;;;;11.77;3.90;;;;;;;16.97;51.07;94124.31;5123661;28;20019;-81
2023/05/08 07:25:14;;;;;;;12.65;4.00;;;;;;;17.20;50.76;94121.03;5123470;28;20219;-81
2023/05/08 07:27:40;;;;;;;13.30;4.25;;;;;;;17.47;49.69;94126.66;5123610;28;20029;-81
2023/05/08 07:30:08;;;;;;;10.35;4.82;;;;;;;17.60;48.94;94123.47;5123427;28;20308;-80
2023/05/08 07:32:34;;;;;;;14.25;5.03;;;;;;;17.64;48.96;94129.72;5123553;28;20023;-81
2023/05/08 07:35:01;;;;;;;11.75;6.30;;;;;;;17.63;49.00;94127.41;5123354;28;20084;-81
2023/05/08 07:37:28;;;;;;;11.60;5.70;;;;;;;17.59;49.29;94129.25;5123619;28;20031;-81
2023/05/08 07:39:53;;;;;;;13.70;7.00;;;;;;;17.58;49.22;94135.75;5123443;28;20030;-81
2023/05/08 07:42:20;;;;;;;11.45;6.95;;;;;;;17.59;49.53;94131.94;5123466;28;20333;-81
2023/05/08 07:44:45;;;;;;;15.13;6.43;;;;;;;17.56;48.61;94132.63;5123210;28;20023;-81
2023/05/08 07:47:11;;;;;;;14.38;6.50;;;;;;;17.54;49.32;94126.81;5123385;28;20336;-81
2023/05/08 07:49:36;;;;;;;13.20;6.38;;;;;;;17.72;49.49;94140.69;5123252;28;20273;-81
2023/05/08 07:52:02;;;;;;;15.70;6.43;;;;;;;17.76;48.91;94120.75;5123078;28;20019;-81
2023/05/08 07:54:27;;;;;;;13.32;6.70;;;;;;;17.89;49.03;94134.16;5123486;28;20068;-81
2023/05/08 07:56:53;;;;;;;17.40;7.18;;;;;;;17.96;48.79;94137.00;5123154;28;20069;-81
2023/05/08 07:59:18;;;;;;;15.35;6.75;;;;;;;17.90;48.73;94139.19;5123156;28;20024;-81
2023/05/08 08:01:46;;;;;;;15.40;7.05;;;;;;;17.91;48.70;94148.84;5123301;28;20100;-81
2023/05/08 08:04:13;;;;;;;17.88;6.55;;;;;;;17.88;48.58;94149.53;5123145;28;20024;-81
2023/05/08 08:06:38;;;;;;;10.63;5.70;;;;;;;17.84;48.70;94138.69;5123141;28;20050;-81
2023/05/08 08:09:04;;;;;;;17.30;6.53;;;;;;;17.83;48.81;94155.22;5123025;28;20053;-81
2023/05/08 08:11:29;;;;;;;14.18;5.85;;;;;;;17.84;49.57;94154.84;5104760;28;20252;-81
2023/05/08 08:13:55;;;;;;;13.02;5.55;;;;;;;17.84;49.14;94148.69;5123101;28;20031;-81
2023/05/08 08:16:20;;;;;;;8.98;5.18;;;;;;;17.92;48.40;94136.16;5105085;28;20016;-81
2023/05/08 08:18:46;;;;;;;8.65;5.07;;;;;;;17.95;47.80;94140.81;5123433;28;20020;-81
2023/05/08 08:21:11;;;;;;;10.68;4.47;;;;;;;17.96;48.02;94139.72;5122926;28;20210;-81
2023/05/08 08:23:37;;;;;;;13.38;4.15;;;;;;;17.94;47.93;94144.66;5123407;28;20171;-81
2023/05/08 08:26:02;;;;;;;12.10;4.20;;;;;;;18.00;47.88;94146.72;5123152;28;20030;-81
2023/05/08 08:28:28;;;;;;;8.35;4.10;;;;;;;17.98;48.27;94140.13;5125450;28;20033;-81
2023/05/08 08:30:53;;;;;;;10.38;4.25;;;;;;;17.92;48.34;94145.00;5127050;28;20027;-81
2023/05/08 08:33:18;;;;;;;9.80;3.75;;;;;;;18.03;48.37;94143.34;5127059;28;20054;-81
2023/05/08 08:35:44;;;;;;;7.13;3.55;;;;;;;18.17;48.45;94129.34;5127054;28;20019;-81
2023/05/08 08:38:10;;;;;;;8.80;3.88;;;;;;;18.10;48.53;94118.44;5126739;28;20026;-81
2023/05/08 08:40:41;;;;;;;8.00;3.45;;;;;;;18.28;48.76;94112.59;5126951;28;20061;-81
2023/05/08 08:43:08;;;;;;;7.32;3.45;;;;;;;18.46;48.85;94108.34;5127004;28;20038;-81
2023/05/08 08:45:35;;;;;;;14.38;4.25;;;;;;;18.59;49.16;94107.03;5126468;28;20027;-81
2023/05/08 08:48:02;;;;;;;10.48;3.42;;;;;;;18.84;47.76;94107.50;5126630;28;20043;-81
2023/05/08 08:50:31;;;;;;;9.82;4.57;;;;;;;18.97;48.06;94118.94;5126682;28;20086;-81
2023/05/08 08:53:16;;;;;;;11.32;3.92;;;;;;;19.12;48.86;94108.38;5126625;28;20051;-81
2023/05/08 08:55:45;;;;;;;9.70;4.10;;;;;;;19.16;47.53;94114.63;5126561;28;20016;-81
2023/05/08 08:58:30;;;;;;;10.30;3.60;;;;;;;19.20;48.10;94101.94;5126654;28;20363;-81
2023/05/08 09:00:57;;;;;;;6.78;3.35;;;;;;;19.46;48.65;94095.78;5126992;28;20271;-81
2023/05/08 09:03:23;;;;;;;6.63;3.60;;;;;;;19.67;48.49;94087.19;5126599;28;20043;-81
2023/05/08 09:05:48;;;;;;;10.52;4.30;;;;;;;19.87;47.84;94079.00;5126419;28;20023;-81
2023/05/08 09:08:14;;;;;;;11.32;3.75;;;;;;;20.00;47.17;94078.38;5126306;28;20019;-81
2023/05/08 09:10:40;;;;;;;16.38;5.47;;;;;;;20.00;46.91;94083.78;5126361;28;20348;-81
2023/05/08 09:13:06;;;;;;;10.15;4.35;;;;;;;19.95;47.10;94076.00;5126032;28;20019;-81
2023/05/08 09:15:32;;;;;;;9.23;3.75;;;;;;;19.92;47.07;94075.97;5107941;28;20317;-81
2023/05/08 09:17:57;;;;;;;13.23;3.92;;;;;;;19.95;47.55;94067.13;5126320;28;20035;-81
2023/05/08 09:20:24;;;;;;;11.55;4.50;;;;;;;19.96;47.79;94065.97;5126066;28;20016;-81
2023/05/08 09:22:50;;;;;;;11.85;4.15;;;;;;;20.13;47.28;94070.84;5126250;28;20023;-81
2023/05/08 09:25:17;;;;;;;9.27;3.25;;;;;;;20.36;47.26;94059.09;5126046;28;20020;-81
2023/05/08 09:27:43;;;;;;;17.30;4.85;;;;;;;20.55;46.29;94050.78;5125842;28;20039;-81
2023/05/08 09:30:10;;;;;;;28.05;4.60;;;;;;;20.76;46.66;94046.75;5126031;28;20344;-81
2023/05/08 09:32:38;;;;;;;9.40;5.10;;;;;;;20.97;46.32;94041.53;5125356;28;20107;-81
2023/05/08 09:35:05;;;;;;;13.30;4.57;;;;;;;21.09;45.12;94042.41;5125431;28;20199;-81
2023/05/08 09:37:31;;;;;;;11.20;4.15;;;;;;;21.16;44.91;94047.88;5125314;28;20024;-81
2023/05/08 09:40:20;;;;;;;9.57;3.80;;;;;;;21.33;44.08;94052.66;5124448;28;20034;-81
2023/05/08 09:42:47;;;;;;;10.10;4.25;;;;;;;21.45;43.33;94054.28;5124936;28;20019;-81
2023/05/08 09:45:27;;;;;;;14.65;4.25;;;;;;;21.60;43.46;94074.16;5125195;28;20076;-81
2023/05/08 09:47:52;;;;;;;10.13;3.67;;;;;;;21.74;42.12;94078.91;5125338;28;20026;-81
2023/05/08 09:50:18;;;;;;;13.73;4.25;;;;;;;21.63;42.26;94079.59;5107222;28;20123;-81
2023/05/08 09:52:48;;;;;;;13.80;4.25;;;;;;;21.56;42.66;94076.06;5125000;28;20064;-81
2023/05/08 09:55:13;;;;;;;10.07;4.05;;;;;;;21.47;43.08;94086.47;5125189;28;20035;-81
2023/05/08 09:57:50;;;;;;;10.20;4.28;;;;;;;21.41;42.62;94086.78;5124972;28;20012;-81
2023/05/08 10:00:15;;;;;;;26.95;7.13;;;;;;;21.30;43.33;94079.72;5125141;28;20015;-81
2023/05/08 10:02:53;;;;;;;14.38;4.80;;;;;;;21.26;43.58;94076.97;5124958;28;20326;-81
2023/05/08 10:05:25;;;;;;;20.42;3.92;;;;;;;21.12;44.16;94091.19;5106582;28;20322;-81
2023/05/08 10:07:50;;;;;;;8.27;3.90;;;;;;;21.06;43.50;94075.66;5124700;28;20095;-81
2023/05/08 10:10:29;;;;;;;9.57;5.20;;;;;;;20.99;43.93;94085.28;5124381;28;20276;-81
2023/05/08 10:12:56;;;;;;;9.75;4.30;;;;;;;20.93;43.75;94084.06;5106678;28;20064;-81
2023/05/08 10:15:24;;;;;;;8.35;4.07;;;;;;;20.96;43.95;94079.81;5124948;28;20047;-81
2023/05/08 10:18:01;;;;;;;13.35;5.50;;;;;;;21.00;44.07;94067.88;5124620;28;20047;-81
2023/05/08 10:20:29;;;;;;;6.80;4.13;;;;;;;20.91;44.40;94069.34;5125013;28;20019;-82
2023/05/08 10:22:56;;;;;;;12.40;4.32;;;;;;;20.96;44.37;94060.88;5124885;28;20020;-81
2023/05/08 10:25:22;;;;;;;8.98;4.30;;;;;;;20.94;44.10;94058.53;5124575;28;20023;-82
2023/05/08 10:27:57;;;;;;;13.20;4.70;;;;;;;20.93;44.53;94056.22;5124325;28;20054;-82
2023/05/08 10:30:26;;;;;;;7.57;4.22;;;;;;;20.91;44.91;94051.16;5106365;28;20021;-81
2023/05/08 10:32:57;;;;;;;7.50;4.47;;;;;;;20.89;44.68;94050.75;5124408;28;20055;-81
2023/05/08 10:35:22;;;;;;;7.95;4.10;;;;;;;20.94;44.28;94047.69;5124399;28;20020;-81
2023/05/08 10:37:48;;;;;;;12.00;3.95;;;;;;;20.95;44.77;94043.84;5124317;28;20030;-81
2023/05/08 10:40:14;;;;;;;13.00;4.32;;;;;;;21.05;45.62;94045.09;5124342;28;20019;-81
2023/05/08 10:42:41;;;;;;;6.50;3.67;;;;;;;21.19;44.44;94036.28;5124404;28;20030;-82
2023/05/08 10:45:07;;;;;;;8.48;3.88;;;;;;;21.07;44.30;94037.34;5124109;28;20023;-81
2023/05/08 10:47:54;;;;;;;8.25;3.85;;;;;;;20.96;45.70;94028.34;5124216;28;20039;-81
2023/05/08 10:50:59;;;;;;;13.68;3.75;;;;;;;21.01;45.81;94028.78;5123806;28;20038;-81
2023/05/08 10:53:53;;;;;;;12.63;3.80;;;;;;;20.96;45.04;94034.53;5106125;28;20012;-81
2023/05/08 10:56:26;;;;;;;7.32;4.63;;;;;;;20.89;46.63;94033.72;5124231;28;20035;-81
2023/05/08 10:58:56;;;;;;;7.15;4.15;;;;;;;20.89;45.90;94022.88;5123977;28;20016;-82
2023/05/08 11:01:22;;;;;;;10.88;4.07;;;;;;;21.01;46.69;94020.66;5123992;28;20202;-82
2023/05/08 11:03:51;;;;;;;15.55;4.13;;;;;;;21.25;46.61;94015.81;5124067;28;20111;-82
2023/05/08 11:06:38;;;;;;;6.97;4.90;;;;;;;21.60;45.88;94006.34;5123985;28;20343;-81
2023/05/08 11:09:03;;;;;;;10.30;6.07;;;;;;;21.89;45.07;94011.91;5123603;28;20019;-81
2023/05/08 11:11:32;;;;;;;5.88;3.83;;;;;;;22.12;42.75;94008.91;5123760;28;20035;-81
2023/05/08 11:14:07;;;;;;;7.75;3.40;;;;;;;21.98;43.14;94004.19;5124054;28;20052;-81
2023/05/08 11:17:00;;;;;;;13.07;4.18;;;;;;;21.80;43.50;93999.47;5123798;28;20029;-81
2023/05/08 11:19:27;;;;;;;16.90;4.18;;;;;;;21.86;43.79;94001.81;5123960;28;20322;-81
2023/05/08 11:22:11;;;;;;;9.30;4.40;;;;;;;21.86;43.00;93996.38;5123612;28;20095;-82
2023/05/08 11:24:39;;;;;;;6.80;3.58;;;;;;;21.92;43.54;93989.44;5123642;28;20015;-82
2023/05/08 11:27:04;;;;;;;6.07;3.53;;;;;;;22.02;42.92;93986.78;5105678;28;20053;-81
2023/05/08 11:29:30;;;;;;;7.97;4.00;;;;;;;22.19;43.33;93976.34;5123463;28;20024;-81
2023/05/08 11:31:55;;;;;;;7.32;3.67;;;;;;;22.37;42.61;93977.19;5123746;28;20020;-81
2023/05/08 11:34:46;;;;;;;6.88;3.45;;;;;;;22.64;41.83;93968.69;5123386;28;20015;-80
2023/05/08 11:37:20;;;;;;;11.48;3.55;;;;;;;22.79;41.32;93980.34;5123458;28;20016;-81